sensor_id;sensor_type;location;lat;lon;timestamp;pressure;altitude;pressure_sealevel;temperature
69007;BMP180;56061;51.748;19.620;2022-12-07T00:01:39;98238.20;;;2.40
69007;BMP180;56061;51.748;19.620;2022-12-07T00:04:10;98238.00;;;2.40
69007;BMP180;56061;51.748;19.620;2022-12-07T00:06:43;98236.60;;;2.50
69007;BMP180;56061;51.748;19.620;2022-12-07T00:09:14;98234.80;;;2.54
69007;BMP180;56061;51.748;19.620;2022-12-07T00:11:41;98228.40;;;2.60
69007;BMP180;56061;51.748;19.620;2022-12-07T00:14:13;98227.60;;;2.56
69007;BMP180;56061;51.748;19.620;2022-12-07T00:16:40;98231.60;;;2.60
69007;BMP180;56061;51.748;19.620;2022-12-07T00:19:10;98230.60;;;2.60
69007;BMP180;56061;51.748;19.620;2022-12-07T00:21:37;98227.60;;;2.60
69007;BMP180;56061;51.748;19.620;2022-12-07T00:24:05;98224.80;;;2.50
69007;BMP180;56061;51.748;19.620;2022-12-07T00:26:36;98224.80;;;2.50
69007;BMP180;56061;51.748;19.620;2022-12-07T00:29:06;98232.60;;;2.52
69007;BMP180;56061;51.748;19.620;2022-12-07T00:31:36;98234.20;;;2.60
69007;BMP180;56061;51.748;19.620;2022-12-07T00:34:07;98236.00;;;2.60
69007;BMP180;56061;51.748;19.620;2022-12-07T00:36:37;98237.80;;;2.50
69007;BMP180;56061;51.748;19.620;2022-12-07T00:39:04;98236.20;;;2.50
69007;BMP180;56061;51.748;19.620;2022-12-07T00:41:30;98235.00;;;2.54
69007;BMP180;56061;51.748;19.620;2022-12-07T00:43:58;98234.80;;;2.50
69007;BMP180;56061;51.748;19.620;2022-12-07T00:46:25;98238.80;;;2.50
69007;BMP180;56061;51.748;19.620;2022-12-07T00:48:53;98234.20;;;2.60
69007;BMP180;56061;51.748;19.620;2022-12-07T00:51:23;98236.00;;;2.60
69007;BMP180;56061;51.748;19.620;2022-12-07T00:53:51;98235.20;;;2.60
69007;BMP180;56061;51.748;19.620;2022-12-07T00:56:24;98235.20;;;2.50
69007;BMP180;56061;51.748;19.620;2022-12-07T00:59:00;98233.80;;;2.50
69007;BMP180;56061;51.748;19.620;2022-12-07T01:01:31;98229.40;;;2.52
69007;BMP180;56061;51.748;19.620;2022-12-07T01:03:59;98231.20;;;2.50
69007;BMP180;56061;51.748;19.620;2022-12-07T01:06:28;98231.80;;;2.50
69007;BMP180;56061;51.748;19.620;2022-12-07T01:08:55;98229.60;;;2.50
69007;BMP180;56061;51.748;19.620;2022-12-07T01:11:26;98227.20;;;2.40
69007;BMP180;56061;51.748;19.620;2022-12-07T01:13:55;98227.00;;;2.40
69007;BMP180;56061;51.748;19.620;2022-12-07T01:16:26;98221.00;;;2.48
69007;BMP180;56061;51.748;19.620;2022-12-07T01:18:55;98216.20;;;2.40
69007;BMP180;56061;51.748;19.620;2022-12-07T01:21:25;98212.60;;;2.40
69007;BMP180;56061;51.748;19.620;2022-12-07T01:23:52;98216.80;;;2.40
69007;BMP180;56061;51.748;19.620;2022-12-07T01:26:22;98218.00;;;2.30
69007;BMP180;56061;51.748;19.620;2022-12-07T01:28:51;98213.00;;;2.20
69007;BMP180;56061;51.748;19.620;2022-12-07T01:31:23;98207.00;;;2.24
69007;BMP180;56061;51.748;19.620;2022-12-07T01:33:56;98205.60;;;2.20
69007;BMP180;56061;51.748;19.620;2022-12-07T01:36:31;98205.60;;;2.20
69007;BMP180;56061;51.748;19.620;2022-12-07T01:39:03;98207.80;;;2.20
69007;BMP180;56061;51.748;19.620;2022-12-07T01:41:34;98205.20;;;2.30
69007;BMP180;56061;51.748;19.620;2022-12-07T01:44:23;98204.00;;;2.30
69007;BMP180;56061;51.748;19.620;2022-12-07T01:46:56;98200.20;;;2.30
69007;BMP180;56061;51.748;19.620;2022-12-07T01:49:24;98191.60;;;2.20
69007;BMP180;56061;51.748;19.620;2022-12-07T01:52:10;98196.40;;;2.20
69007;BMP180;56061;51.748;19.620;2022-12-07T01:54:40;98192.20;;;2.20
69007;BMP180;56061;51.748;19.620;2022-12-07T01:57:08;98189.40;;;2.20
69007;BMP180;56061;51.748;19.620;2022-12-07T01:59:35;98187.40;;;2.30
69007;BMP180;56061;51.748;19.620;2022-12-07T02:02:10;98187.20;;;2.30
69007;BMP180;56061;51.748;19.620;2022-12-07T02:04:39;98189.20;;;2.40
69007;BMP180;56061;51.748;19.620;2022-12-07T02:07:06;98189.60;;;2.30
69007;BMP180;56061;51.748;19.620;2022-12-07T02:09:32;98180.80;;;2.38
69007;BMP180;56061;51.748;19.620;2022-12-07T02:11:59;98180.80;;;2.34
69007;BMP180;56061;51.748;19.620;2022-12-07T02:14:25;98179.40;;;2.30
69007;BMP180;56061;51.748;19.620;2022-12-07T02:23:07;98173.40;;;2.30
69007;BMP180;56061;51.748;19.620;2022-12-07T02:26:23;98168.40;;;2.20
69007;BMP180;56061;51.748;19.620;2022-12-07T02:29:27;98170.80;;;2.20
69007;BMP180;56061;51.748;19.620;2022-12-07T02:32:12;98168.40;;;2.10
69007;BMP180;56061;51.748;19.620;2022-12-07T02:34:58;98159.80;;;2.10
69007;BMP180;56061;51.748;19.620;2022-12-07T02:37:38;98161.60;;;2.18
69007;BMP180;56061;51.748;19.620;2022-12-07T02:40:27;98158.20;;;2.10
69007;BMP180;56061;51.748;19.620;2022-12-07T02:43:04;98159.40;;;2.10
69007;BMP180;56061;51.748;19.620;2022-12-07T02:45:36;98152.60;;;2.16
69007;BMP180;56061;51.748;19.620;2022-12-07T02:48:07;98154.80;;;2.06
69007;BMP180;56061;51.748;19.620;2022-12-07T02:50:34;98151.80;;;2.10
69007;BMP180;56061;51.748;19.620;2022-12-07T02:53:01;98146.60;;;2.00
69007;BMP180;56061;51.748;19.620;2022-12-07T02:55:39;98154.00;;;2.00
69007;BMP180;56061;51.748;19.620;2022-12-07T02:58:30;98152.00;;;2.00
69007;BMP180;56061;51.748;19.620;2022-12-07T03:01:16;98150.20;;;2.08
69007;BMP180;56061;51.748;19.620;2022-12-07T03:04:02;98148.00;;;2.00
69007;BMP180;56061;51.748;19.620;2022-12-07T03:06:42;98153.40;;;2.12
69007;BMP180;56061;51.748;19.620;2022-12-07T03:09:26;98153.60;;;2.20
69007;BMP180;56061;51.748;19.620;2022-12-07T03:12:07;98151.00;;;2.10
69007;BMP180;56061;51.748;19.620;2022-12-07T03:14:50;98147.80;;;2.10
69007;BMP180;56061;51.748;19.620;2022-12-07T03:17:30;98150.40;;;2.00
69007;BMP180;56061;51.748;19.620;2022-12-07T03:20:00;98140.20;;;2.00
69007;BMP180;56061;51.748;19.620;2022-12-07T03:22:31;98140.20;;;2.00
69007;BMP180;56061;51.748;19.620;2022-12-07T03:25:06;98142.60;;;2.00
69007;BMP180;56061;51.748;19.620;2022-12-07T03:27:56;98144.40;;;2.00
69007;BMP180;56061;51.748;19.620;2022-12-07T03:30:39;98132.60;;;2.00
69007;BMP180;56061;51.748;19.620;2022-12-07T03:33:24;98131.80;;;2.00
69007;BMP180;56061;51.748;19.620;2022-12-07T03:36:19;98135.00;;;2.10
69007;BMP180;56061;51.748;19.620;2022-12-07T03:38:58;98134.20;;;2.10
69007;BMP180;56061;51.748;19.620;2022-12-07T03:41:31;98133.40;;;2.00
69007;BMP180;56061;51.748;19.620;2022-12-07T03:43:59;98130.00;;;2.00
69007;BMP180;56061;51.748;19.620;2022-12-07T03:47:06;98131.20;;;2.00
69007;BMP180;56061;51.748;19.620;2022-12-07T03:49:55;98130.00;;;2.00
69007;BMP180;56061;51.748;19.620;2022-12-07T03:52:36;98121.60;;;1.94
69007;BMP180;56061;51.748;19.620;2022-12-07T03:55:27;98126.20;;;1.90
69007;BMP180;56061;51.748;19.620;2022-12-07T03:58:03;98123.40;;;1.90
69007;BMP180;56061;51.748;19.620;2022-12-07T04:00:31;98121.60;;;2.00
69007;BMP180;56061;51.748;19.620;2022-12-07T04:02:58;98123.80;;;2.00
69007;BMP180;56061;51.748;19.620;2022-12-07T04:05:25;98125.00;;;2.04
69007;BMP180;56061;51.748;19.620;2022-12-07T04:07:52;98123.20;;;2.00
69007;BMP180;56061;51.748;19.620;2022-12-07T04:10:19;98121.40;;;2.04
69007;BMP180;56061;51.748;19.620;2022-12-07T04:12:46;98121.60;;;2.08
69007;BMP180;56061;51.748;19.620;2022-12-07T04:15:12;98121.00;;;2.10
69007;BMP180;56061;51.748;19.620;2022-12-07T04:17:39;98117.60;;;2.10
69007;BMP180;56061;51.748;19.620;2022-12-07T04:20:06;98117.80;;;2.04
69007;BMP180;56061;51.748;19.620;2022-12-07T04:22:33;98115.00;;;2.10
69007;BMP180;56061;51.748;19.620;2022-12-07T04:25:00;98114.80;;;2.00
69007;BMP180;56061;51.748;19.620;2022-12-07T04:27:26;98117.20;;;2.00
69007;BMP180;56061;51.748;19.620;2022-12-07T04:29:52;98117.60;;;2.00
69007;BMP180;56061;51.748;19.620;2022-12-07T04:32:19;98118.80;;;2.00
69007;BMP180;56061;51.748;19.620;2022-12-07T04:34:45;98119.40;;;1.96
69007;BMP180;56061;51.748;19.620;2022-12-07T04:37:17;98111.20;;;2.00
69007;BMP180;56061;51.748;19.620;2022-12-07T04:39:44;98116.00;;;2.00
69007;BMP180;56061;51.748;19.620;2022-12-07T04:42:13;98113.60;;;2.02
69007;BMP180;56061;51.748;19.620;2022-12-07T04:44:39;98115.20;;;2.00
69007;BMP180;56061;51.748;19.620;2022-12-07T04:47:06;98111.40;;;2.00
69007;BMP180;56061;51.748;19.620;2022-12-07T04:49:33;98117.40;;;2.00
69007;BMP180;56061;51.748;19.620;2022-12-07T04:51:59;98107.80;;;1.90
69007;BMP180;56061;51.748;19.620;2022-12-07T04:54:26;98109.60;;;1.90
69007;BMP180;56061;51.748;19.620;2022-12-07T04:56:52;98108.00;;;1.90
69007;BMP180;56061;51.748;19.620;2022-12-07T04:59:19;98102.00;;;1.86
69007;BMP180;56061;51.748;19.620;2022-12-07T05:01:45;98096.00;;;1.80
69007;BMP180;56061;51.748;19.620;2022-12-07T05:04:12;98095.80;;;1.80
69007;BMP180;56061;51.748;19.620;2022-12-07T05:06:38;98092.80;;;1.80
69007;BMP180;56061;51.748;19.620;2022-12-07T05:09:05;98094.00;;;1.80
69007;BMP180;56061;51.748;19.620;2022-12-07T05:11:31;98099.00;;;1.90
69007;BMP180;56061;51.748;19.620;2022-12-07T05:14:12;98097.60;;;1.90
69007;BMP180;56061;51.748;19.620;2022-12-07T05:16:40;98101.40;;;2.00
69007;BMP180;56061;51.748;19.620;2022-12-07T05:19:08;98098.60;;;2.00
69007;BMP180;56061;51.748;19.620;2022-12-07T05:21:36;98104.60;;;2.00
69007;BMP180;56061;51.748;19.620;2022-12-07T05:24:03;98101.40;;;1.90
69007;BMP180;56061;51.748;19.620;2022-12-07T05:26:31;98101.40;;;1.90
69007;BMP180;56061;51.748;19.620;2022-12-07T05:28:58;98100.60;;;1.90
69007;BMP180;56061;51.748;19.620;2022-12-07T05:31:26;98096.80;;;1.90
69007;BMP180;56061;51.748;19.620;2022-12-07T05:33:53;98099.00;;;1.90
69007;BMP180;56061;51.748;19.620;2022-12-07T05:36:20;98095.80;;;2.00
69007;BMP180;56061;51.748;19.620;2022-12-07T05:38:46;98098.80;;;2.00
69007;BMP180;56061;51.748;19.620;2022-12-07T05:41:16;98099.80;;;1.90
69007;BMP180;56061;51.748;19.620;2022-12-07T05:44:03;98109.00;;;1.90
69007;BMP180;56061;51.748;19.620;2022-12-07T05:46:30;98108.40;;;1.96
69007;BMP180;56061;51.748;19.620;2022-12-07T05:48:56;98105.40;;;2.00
69007;BMP180;56061;51.748;19.620;2022-12-07T05:51:22;98106.60;;;1.96
69007;BMP180;56061;51.748;19.620;2022-12-07T05:53:49;98105.20;;;2.00
69007;BMP180;56061;51.748;19.620;2022-12-07T05:56:16;98107.40;;;2.00
69007;BMP180;56061;51.748;19.620;2022-12-07T05:58:42;98106.80;;;2.00
69007;BMP180;56061;51.748;19.620;2022-12-07T06:01:27;98108.20;;;2.00
69007;BMP180;56061;51.748;19.620;2022-12-07T06:03:54;98109.00;;;2.00
69007;BMP180;56061;51.748;19.620;2022-12-07T06:06:21;98114.60;;;1.90
69007;BMP180;56061;51.748;19.620;2022-12-07T06:08:48;98119.20;;;1.90
69007;BMP180;56061;51.748;19.620;2022-12-07T06:11:14;98115.40;;;1.90
69007;BMP180;56061;51.748;19.620;2022-12-07T06:13:59;98109.80;;;1.90
69007;BMP180;56061;51.748;19.620;2022-12-07T06:16:26;98110.40;;;1.80
69007;BMP180;56061;51.748;19.620;2022-12-07T06:18:52;98114.60;;;1.72
69007;BMP180;56061;51.748;19.620;2022-12-07T06:21:19;98113.00;;;1.70
69007;BMP180;56061;51.748;19.620;2022-12-07T06:23:45;98116.20;;;1.80
69007;BMP180;56061;51.748;19.620;2022-12-07T06:26:11;98113.20;;;1.70
69007;BMP180;56061;51.748;19.620;2022-12-07T06:28:38;98112.20;;;1.80
69007;BMP180;56061;51.748;19.620;2022-12-07T06:31:04;98115.20;;;1.80
69007;BMP180;56061;51.748;19.620;2022-12-07T06:33:38;98109.20;;;1.80
69007;BMP180;56061;51.748;19.620;2022-12-07T06:36:05;98111.80;;;1.80
69007;BMP180;56061;51.748;19.620;2022-12-07T06:38:32;98117.40;;;1.88
69007;BMP180;56061;51.748;19.620;2022-12-07T06:40:58;98118.20;;;1.88
69007;BMP180;56061;51.748;19.620;2022-12-07T06:43:25;98115.00;;;1.88
69007;BMP180;56061;51.748;19.620;2022-12-07T06:45:51;98117.00;;;1.90
69007;BMP180;56061;51.748;19.620;2022-12-07T06:48:18;98116.60;;;2.00
69007;BMP180;56061;51.748;19.620;2022-12-07T06:50:45;98122.00;;;2.06
69007;BMP180;56061;51.748;19.620;2022-12-07T06:53:19;98126.40;;;2.10
69007;BMP180;56061;51.748;19.620;2022-12-07T06:55:46;98123.20;;;2.10
69007;BMP180;56061;51.748;19.620;2022-12-07T06:58:12;98123.40;;;2.10
69007;BMP180;56061;51.748;19.620;2022-12-07T07:00:39;98129.60;;;2.10
69007;BMP180;56061;51.748;19.620;2022-12-07T07:03:05;98124.40;;;2.10
69007;BMP180;56061;51.748;19.620;2022-12-07T07:05:32;98122.80;;;2.18
69007;BMP180;56061;51.748;19.620;2022-12-07T07:07:58;98128.20;;;2.10
69007;BMP180;56061;51.748;19.620;2022-12-07T07:10:45;98132.80;;;2.10
69007;BMP180;56061;51.748;19.620;2022-12-07T07:13:11;98123.20;;;2.20
69007;BMP180;56061;51.748;19.620;2022-12-07T07:15:38;98121.80;;;2.20
69007;BMP180;56061;51.748;19.620;2022-12-07T07:18:05;98125.20;;;2.20
69007;BMP180;56061;51.748;19.620;2022-12-07T07:20:34;98128.00;;;2.20
69007;BMP180;56061;51.748;19.620;2022-12-07T07:23:00;98126.60;;;2.20
69007;BMP180;56061;51.748;19.620;2022-12-07T07:25:27;98124.60;;;2.30
69007;BMP180;56061;51.748;19.620;2022-12-07T07:27:54;98124.80;;;2.30
69007;BMP180;56061;51.748;19.620;2022-12-07T07:30:21;98131.20;;;2.40
69007;BMP180;56061;51.748;19.620;2022-12-07T07:32:48;98136.00;;;2.50
69007;BMP180;56061;51.748;19.620;2022-12-07T07:35:15;98134.00;;;2.50
69007;BMP180;56061;51.748;19.620;2022-12-07T07:37:41;98127.00;;;2.50
69007;BMP180;56061;51.748;19.620;2022-12-07T07:40:09;98137.20;;;2.50
69007;BMP180;56061;51.748;19.620;2022-12-07T07:42:36;98136.40;;;2.50
69007;BMP180;56061;51.748;19.620;2022-12-07T07:45:02;98138.00;;;2.60
69007;BMP180;56061;51.748;19.620;2022-12-07T07:47:29;98140.20;;;2.60
69007;BMP180;56061;51.748;19.620;2022-12-07T07:49:55;98138.00;;;2.70
69007;BMP180;56061;51.748;19.620;2022-12-07T07:52:22;98143.00;;;2.70
69007;BMP180;56061;51.748;19.620;2022-12-07T07:54:48;98143.20;;;2.70
69007;BMP180;56061;51.748;19.620;2022-12-07T07:57:17;98140.00;;;2.70
69007;BMP180;56061;51.748;19.620;2022-12-07T07:59:43;98144.60;;;2.70
69007;BMP180;56061;51.748;19.620;2022-12-07T08:02:18;98145.80;;;2.70
69007;BMP180;56061;51.748;19.620;2022-12-07T08:04:46;98152.60;;;2.80
69007;BMP180;56061;51.748;19.620;2022-12-07T08:07:14;98157.00;;;2.84
69007;BMP180;56061;51.748;19.620;2022-12-07T08:09:41;98157.00;;;2.90
69007;BMP180;56061;51.748;19.620;2022-12-07T08:12:08;98162.40;;;2.90
69007;BMP180;56061;51.748;19.620;2022-12-07T08:14:35;98162.40;;;2.80
69007;BMP180;56061;51.748;19.620;2022-12-07T08:17:02;98162.20;;;2.82
69007;BMP180;56061;51.748;19.620;2022-12-07T08:19:28;98155.00;;;2.90
69007;BMP180;56061;51.748;19.620;2022-12-07T08:21:55;98154.00;;;2.90
69007;BMP180;56061;51.748;19.620;2022-12-07T08:24:23;98155.00;;;3.00
69007;BMP180;56061;51.748;19.620;2022-12-07T08:26:51;98157.00;;;3.00
69007;BMP180;56061;51.748;19.620;2022-12-07T08:29:18;98161.20;;;3.10
69007;BMP180;56061;51.748;19.620;2022-12-07T08:31:44;98159.40;;;3.10
69007;BMP180;56061;51.748;19.620;2022-12-07T08:34:13;98159.60;;;3.10
69007;BMP180;56061;51.748;19.620;2022-12-07T08:36:39;98154.80;;;3.10
69007;BMP180;56061;51.748;19.620;2022-12-07T08:39:06;98158.00;;;3.10
69007;BMP180;56061;51.748;19.620;2022-12-07T08:41:52;98157.60;;;3.10
69007;BMP180;56061;51.748;19.620;2022-12-07T08:44:19;98154.40;;;3.10
69007;BMP180;56061;51.748;19.620;2022-12-07T08:46:56;98155.00;;;3.10
69007;BMP180;56061;51.748;19.620;2022-12-07T08:49:34;98145.40;;;3.10
69007;BMP180;56061;51.748;19.620;2022-12-07T08:52:04;98150.60;;;3.10
69007;BMP180;56061;51.748;19.620;2022-12-07T08:54:34;98146.40;;;3.10
69007;BMP180;56061;51.748;19.620;2022-12-07T08:57:02;98144.60;;;3.10
69007;BMP180;56061;51.748;19.620;2022-12-07T08:59:30;98147.80;;;3.10
69007;BMP180;56061;51.748;19.620;2022-12-07T09:01:57;98146.20;;;3.14
69007;BMP180;56061;51.748;19.620;2022-12-07T09:04:23;98147.00;;;3.12
69007;BMP180;56061;51.748;19.620;2022-12-07T09:06:50;98143.80;;;3.10
69007;BMP180;56061;51.748;19.620;2022-12-07T09:09:17;98141.00;;;3.10
69007;BMP180;56061;51.748;19.620;2022-12-07T09:11:43;98138.00;;;3.10
69007;BMP180;56061;51.748;19.620;2022-12-07T09:14:12;98133.60;;;3.10
69007;BMP180;56061;51.748;19.620;2022-12-07T09:16:39;98135.80;;;3.10
69007;BMP180;56061;51.748;19.620;2022-12-07T09:19:07;98128.80;;;3.10
69007;BMP180;56061;51.748;19.620;2022-12-07T09:21:34;98125.00;;;3.10
69007;BMP180;56061;51.748;19.620;2022-12-07T09:24:00;98129.80;;;3.16
69007;BMP180;56061;51.748;19.620;2022-12-07T09:26:27;98128.60;;;3.20
69007;BMP180;56061;51.748;19.620;2022-12-07T09:28:54;98126.20;;;3.20
69007;BMP180;56061;51.748;19.620;2022-12-07T09:31:20;98130.20;;;3.20
69007;BMP180;56061;51.748;19.620;2022-12-07T09:33:58;98128.40;;;3.14
69007;BMP180;56061;51.748;19.620;2022-12-07T09:36:28;98118.20;;;3.10
69007;BMP180;56061;51.748;19.620;2022-12-07T09:38:55;98120.00;;;3.10
69007;BMP180;56061;51.748;19.620;2022-12-07T09:41:24;98118.40;;;3.00
69007;BMP180;56061;51.748;19.620;2022-12-07T09:43:53;98120.60;;;3.00
69007;BMP180;56061;51.748;19.620;2022-12-07T09:46:21;98117.20;;;3.00
69007;BMP180;56061;51.748;19.620;2022-12-07T09:48:49;98125.80;;;3.00
69007;BMP180;56061;51.748;19.620;2022-12-07T09:51:20;98124.40;;;3.00
69007;BMP180;56061;51.748;19.620;2022-12-07T09:53:54;98122.80;;;3.00
69007;BMP180;56061;51.748;19.620;2022-12-07T09:56:22;98112.00;;;2.94
69007;BMP180;56061;51.748;19.620;2022-12-07T09:58:51;98110.20;;;2.96
69007;BMP180;56061;51.748;19.620;2022-12-07T10:01:21;98111.80;;;2.90
69007;BMP180;56061;51.748;19.620;2022-12-07T10:03:55;98106.80;;;2.90
69007;BMP180;56061;51.748;19.620;2022-12-07T10:06:25;98106.60;;;2.90
69007;BMP180;56061;51.748;19.620;2022-12-07T10:08:51;98102.40;;;2.80
69007;BMP180;56061;51.748;19.620;2022-12-07T10:11:17;98100.80;;;2.80
69007;BMP180;56061;51.748;19.620;2022-12-07T10:13:51;98098.60;;;2.80
69007;BMP180;56061;51.748;19.620;2022-12-07T10:16:40;98095.80;;;2.86
69007;BMP180;56061;51.748;19.620;2022-12-07T10:19:27;98087.20;;;2.90
69007;BMP180;56061;51.748;19.620;2022-12-07T10:22:12;98087.40;;;3.00
69007;BMP180;56061;51.748;19.620;2022-12-07T10:24:46;98085.40;;;3.00
69007;BMP180;56061;51.748;19.620;2022-12-07T10:27:32;98085.20;;;3.00
69007;BMP180;56061;51.748;19.620;2022-12-07T10:29:58;98087.00;;;3.06
69007;BMP180;56061;51.748;19.620;2022-12-07T10:32:32;98087.80;;;3.10
69007;BMP180;56061;51.748;19.620;2022-12-07T10:35:43;98079.60;;;3.10
69007;BMP180;56061;51.748;19.620;2022-12-07T10:38:16;98075.60;;;3.10
69007;BMP180;56061;51.748;19.620;2022-12-07T10:40:43;98074.00;;;3.10
69007;BMP180;56061;51.748;19.620;2022-12-07T10:48:44;98072.60;;;3.00
69007;BMP180;56061;51.748;19.620;2022-12-07T10:51:41;98077.20;;;3.00
69007;BMP180;56061;51.748;19.620;2022-12-07T10:57:32;98077.40;;;3.00
69007;BMP180;56061;51.748;19.620;2022-12-07T11:15:18;98073.00;;;2.80
69007;BMP180;56061;51.748;19.620;2022-12-07T11:18:03;98068.60;;;2.80
69007;BMP180;56061;51.748;19.620;2022-12-07T11:20:54;98066.00;;;2.70
69007;BMP180;56061;51.748;19.620;2022-12-07T11:29:46;98059.60;;;2.70
69007;BMP180;56061;51.748;19.620;2022-12-07T11:32:40;98056.20;;;2.60
69007;BMP180;56061;51.748;19.620;2022-12-07T11:35:55;98055.20;;;2.60
69007;BMP180;56061;51.748;19.620;2022-12-07T11:38:35;98052.00;;;2.60
69007;BMP180;56061;51.748;19.620;2022-12-07T11:41:05;98048.80;;;2.60
69007;BMP180;56061;51.748;19.620;2022-12-07T11:47:16;98041.80;;;2.64
69007;BMP180;56061;51.748;19.620;2022-12-07T11:49:53;98035.80;;;2.60
69007;BMP180;56061;51.748;19.620;2022-12-07T11:52:30;98039.60;;;2.60
69007;BMP180;56061;51.748;19.620;2022-12-07T11:55:01;98037.60;;;2.60
69007;BMP180;56061;51.748;19.620;2022-12-07T11:57:39;98038.80;;;2.60
69007;BMP180;56061;51.748;19.620;2022-12-07T12:00:16;98040.20;;;2.60
69007;BMP180;56061;51.748;19.620;2022-12-07T12:02:49;98042.00;;;2.60
69007;BMP180;56061;51.748;19.620;2022-12-07T12:05:22;98037.80;;;2.52
69007;BMP180;56061;51.748;19.620;2022-12-07T12:08:27;98039.00;;;2.52
69007;BMP180;56061;51.748;19.620;2022-12-07T12:17:58;98017.20;;;2.64
69007;BMP180;56061;51.748;19.620;2022-12-07T12:20:55;98011.00;;;2.70
69007;BMP180;56061;51.748;19.620;2022-12-07T12:26:02;98010.00;;;2.80
69007;BMP180;56061;51.748;19.620;2022-12-07T12:29:17;98015.80;;;2.80
69007;BMP180;56061;51.748;19.620;2022-12-07T12:32:04;98008.80;;;2.82
69007;BMP180;56061;51.748;19.620;2022-12-07T12:42:44;98002.40;;;2.90
69007;BMP180;56061;51.748;19.620;2022-12-07T12:45:30;97996.80;;;2.90
69007;BMP180;56061;51.748;19.620;2022-12-07T12:48:01;97998.60;;;2.90
69007;BMP180;56061;51.748;19.620;2022-12-07T12:50:36;97994.80;;;2.90
69007;BMP180;56061;51.748;19.620;2022-12-07T12:53:14;97993.40;;;2.90
69007;BMP180;56061;51.748;19.620;2022-12-07T13:03:57;97993.00;;;2.90
69007;BMP180;56061;51.748;19.620;2022-12-07T13:08:56;97995.00;;;2.80
69007;BMP180;56061;51.748;19.620;2022-12-07T13:11:44;97991.20;;;2.80
69007;BMP180;56061;51.748;19.620;2022-12-07T13:20:03;97979.80;;;2.90
69007;BMP180;56061;51.748;19.620;2022-12-07T13:25:05;97975.00;;;2.80
69007;BMP180;56061;51.748;19.620;2022-12-07T13:27:37;97984.20;;;2.80
69007;BMP180;56061;51.748;19.620;2022-12-07T13:30:20;97976.00;;;2.80
69007;BMP180;56061;51.748;19.620;2022-12-07T13:32:53;97977.60;;;2.74
69007;BMP180;56061;51.748;19.620;2022-12-07T13:35:35;97976.40;;;2.70
69007;BMP180;56061;51.748;19.620;2022-12-07T13:41:15;97981.20;;;2.70
69007;BMP180;56061;51.748;19.620;2022-12-07T13:47:01;97978.20;;;2.60
69007;BMP180;56061;51.748;19.620;2022-12-07T13:49:37;97982.00;;;2.60
69007;BMP180;56061;51.748;19.620;2022-12-07T13:52:16;97977.00;;;2.60
69007;BMP180;56061;51.748;19.620;2022-12-07T13:55:05;97985.40;;;2.60
69007;BMP180;56061;51.748;19.620;2022-12-07T13:57:38;97987.00;;;2.60
69007;BMP180;56061;51.748;19.620;2022-12-07T14:00:15;97985.60;;;2.50
69007;BMP180;56061;51.748;19.620;2022-12-07T14:02:59;97988.40;;;2.50
69007;BMP180;56061;51.748;19.620;2022-12-07T14:05:32;97981.20;;;2.50
69007;BMP180;56061;51.748;19.620;2022-12-07T14:08:04;97986.20;;;2.50
69007;BMP180;56061;51.748;19.620;2022-12-07T14:10:39;97987.20;;;2.50
69007;BMP180;56061;51.748;19.620;2022-12-07T14:13:31;97988.80;;;2.50
69007;BMP180;56061;51.748;19.620;2022-12-07T14:16:02;97984.00;;;2.42
69007;BMP180;56061;51.748;19.620;2022-12-07T14:18:37;97986.20;;;2.50
69007;BMP180;56061;51.748;19.620;2022-12-07T14:23:40;97980.60;;;2.40
69007;BMP180;56061;51.748;19.620;2022-12-07T14:26:11;97984.00;;;2.46
69007;BMP180;56061;51.748;19.620;2022-12-07T14:28:38;97981.80;;;2.50
69007;BMP180;56061;51.748;19.620;2022-12-07T14:31:18;97984.60;;;2.50
69007;BMP180;56061;51.748;19.620;2022-12-07T14:33:59;97982.40;;;2.50
69007;BMP180;56061;51.748;19.620;2022-12-07T14:36:26;97986.40;;;2.50
69007;BMP180;56061;51.748;19.620;2022-12-07T14:38:52;97988.00;;;2.50
69007;BMP180;56061;51.748;19.620;2022-12-07T14:41:22;97986.40;;;2.50
69007;BMP180;56061;51.748;19.620;2022-12-07T14:44:12;97986.20;;;2.50
69007;BMP180;56061;51.748;19.620;2022-12-07T14:46:58;97990.60;;;2.50
69007;BMP180;56061;51.748;19.620;2022-12-07T14:49:45;97988.20;;;2.54
69007;BMP180;56061;51.748;19.620;2022-12-07T14:52:23;97983.60;;;2.60
69007;BMP180;56061;51.748;19.620;2022-12-07T14:55:29;97983.20;;;2.60
69007;BMP180;56061;51.748;19.620;2022-12-07T14:57:57;97985.00;;;2.60
69007;BMP180;56061;51.748;19.620;2022-12-07T15:00:27;97977.80;;;2.60
69007;BMP180;56061;51.748;19.620;2022-12-07T15:02:55;97982.40;;;2.60
69007;BMP180;56061;51.748;19.620;2022-12-07T15:05:22;97978.00;;;2.60
69007;BMP180;56061;51.748;19.620;2022-12-07T15:07:50;97983.80;;;2.60
69007;BMP180;56061;51.748;19.620;2022-12-07T15:10:22;97983.80;;;2.60
69007;BMP180;56061;51.748;19.620;2022-12-07T15:12:50;97976.80;;;2.64
69007;BMP180;56061;51.748;19.620;2022-12-07T15:15:17;97975.20;;;2.70
69007;BMP180;56061;51.748;19.620;2022-12-07T15:17:44;97982.40;;;2.66
69007;BMP180;56061;51.748;19.620;2022-12-07T15:20:14;97982.00;;;2.60
69007;BMP180;56061;51.748;19.620;2022-12-07T15:22:42;97978.00;;;2.50
69007;BMP180;56061;51.748;19.620;2022-12-07T15:25:13;97978.40;;;2.50
69007;BMP180;56061;51.748;19.620;2022-12-07T15:27:39;97975.80;;;2.50
69007;BMP180;56061;51.748;19.620;2022-12-07T15:30:07;97975.20;;;2.50
69007;BMP180;56061;51.748;19.620;2022-12-07T15:32:33;97978.40;;;2.40
69007;BMP180;56061;51.748;19.620;2022-12-07T15:35:00;97976.80;;;2.40
69007;BMP180;56061;51.748;19.620;2022-12-07T15:37:27;97979.00;;;2.30
69007;BMP180;56061;51.748;19.620;2022-12-07T15:39:54;97976.60;;;2.40
69007;BMP180;56061;51.748;19.620;2022-12-07T15:42:20;97978.00;;;2.40
69007;BMP180;56061;51.748;19.620;2022-12-07T15:44:47;97978.20;;;2.50
69007;BMP180;56061;51.748;19.620;2022-12-07T15:47:38;97975.20;;;2.50
69007;BMP180;56061;51.748;19.620;2022-12-07T15:50:24;97977.80;;;2.50
69007;BMP180;56061;51.748;19.620;2022-12-07T15:52:51;97983.80;;;2.60
69007;BMP180;56061;51.748;19.620;2022-12-07T15:55:17;97974.40;;;2.50
69007;BMP180;56061;51.748;19.620;2022-12-07T15:57:44;97982.80;;;2.40
69007;BMP180;56061;51.748;19.620;2022-12-07T16:00:11;97977.60;;;2.32
69007;BMP180;56061;51.748;19.620;2022-12-07T16:02:38;97985.60;;;2.40
69007;BMP180;56061;51.748;19.620;2022-12-07T16:05:06;97986.00;;;2.40